Time;durP1;ratioP1;P1;durP2;ratioP2;P2;SDS_P1;SDS_P2;PMS_P1;PMS_P2;Temp;Humidity;BMP_temperature;BMP_pressure;BME280_temperature;BME280_humidity;BME280_pressure;Samples;Min_cycle;Max_cycle;Signal;HPM_P1;HPM_P2
2022/03/22 00:00:21;;;;;;;24.83;19.00;;;;;;;7.73;55.56;101936.47;5095200;28;20835;-68
2022/03/22 00:02:48;;;;;;;27.80;19.03;;;;;;;7.70;55.94;101934.81;5082658;28;20438;-68
2022/03/22 00:05:16;;;;;;;30.93;20.10;;;;;;;7.84;53.47;101926.09;5089874;28;20443;-67
2022/03/22 00:07:42;;;;;;;30.13;18.70;;;;;;;8.10;51.81;101926.50;5089832;28;20440;-67
2022/03/22 00:10:10;;;;;;;23.73;17.37;;;;;;;8.10;52.12;101927.34;5080581;28;20474;-67
2022/03/22 00:12:37;;;;;;;28.10;18.43;;;;;;;8.12;51.37;101937.94;5092661;28;20446;-67
2022/03/22 00:15:08;;;;;;;22.70;18.17;;;;;;;8.01;52.67;101927.03;5087367;28;20480;-67
2022/03/22 00:17:36;;;;;;;26.07;18.50;;;;;;;7.88;52.63;101933.00;5087094;28;20459;-67
2022/03/22 00:20:04;;;;;;;24.77;17.33;;;;;;;7.85;53.36;101933.16;5092485;28;21013;-67
2022/03/22 00:22:30;;;;;;;27.00;18.80;;;;;;;7.76;53.70;101936.31;5098321;28;20908;-67
2022/03/22 00:24:57;;;;;;;23.87;17.20;;;;;;;7.87;52.24;101936.59;5090019;28;20447;-67
2022/03/22 00:27:24;;;;;;;22.43;16.97;;;;;;;7.87;52.07;101936.59;5100643;28;20900;-68
2022/03/22 00:29:51;;;;;;;23.97;17.47;;;;;;;7.90;51.34;101932.94;5098909;28;20503;-68
2022/03/22 00:32:18;;;;;;;24.80;17.73;;;;;;;7.90;51.69;101932.94;5099423;28;20474;-68
2022/03/22 00:34:46;;;;;;;30.97;17.83;;;;;;;7.90;51.71;101939.09;5097683;28;20894;-68
2022/03/22 00:37:15;;;;;;;24.00;16.27;;;;;;;7.84;51.30;101936.75;5081548;28;20511;-68
2022/03/22 00:39:42;;;;;;;24.50;15.90;;;;;;;7.89;51.06;101940.03;5084529;28;20466;-68
2022/03/22 00:42:09;;;;;;;21.30;16.67;;;;;;;7.88;51.17;101933.00;5100570;28;20520;-68
2022/03/22 00:44:37;;;;;;;25.17;17.23;;;;;;;7.80;51.11;101943.19;5088756;28;20441;-67
2022/03/22 00:47:05;;;;;;;25.00;16.70;;;;;;;7.90;50.73;101941.75;5086015;28;20595;-67
2022/03/22 00:49:33;;;;;;;23.90;17.40;;;;;;;7.97;50.43;101928.09;5100062;28;20419;-67
2022/03/22 00:52:01;;;;;;;23.33;16.60;;;;;;;7.96;50.35;101942.38;5095634;28;20510;-68
2022/03/22 00:54:29;;;;;;;26.00;17.90;;;;;;;7.92;50.42;101941.69;5089778;28;20519;-68
2022/03/22 00:56:55;;;;;;;26.47;18.40;;;;;;;7.96;50.20;101943.22;5086694;28;20495;-68
2022/03/22 01:02:08;;;;;;;20.53;15.77;;;;;;;7.83;50.78;101932.38;5069411;28;20493;-68
2022/03/22 01:04:35;;;;;;;23.50;17.83;;;;;;;7.78;50.90;101934.44;5099484;28;20439;-68
2022/03/22 01:07:04;;;;;;;26.67;17.27;;;;;;;7.73;51.23;101939.13;5094327;28;20475;-68
2022/03/22 01:09:31;;;;;;;25.30;17.33;;;;;;;7.63;51.46;101940.56;5084630;28;20505;-68
2022/03/22 01:11:57;;;;;;;27.10;17.73;;;;;;;7.60;51.46;101940.72;5095631;28;20507;-68
2022/03/22 01:14:25;;;;;;;31.73;17.30;;;;;;;7.59;51.38;101934.53;5083545;28;20479;-68
2022/03/22 01:16:52;;;;;;;25.03;18.50;;;;;;;7.58;51.45;101940.78;5100111;28;20505;-69
2022/03/22 01:19:21;;;;;;;21.30;16.40;;;;;;;7.57;51.45;101941.75;5098801;28;20447;-68
2022/03/22 01:21:48;;;;;;;23.53;16.57;;;;;;;7.43;51.88;101929.16;5095869;28;20476;-68
2022/03/22 01:24:16;;;;;;;24.30;17.80;;;;;;;7.33;52.41;101939.38;5060008;28;20475;-68
2022/03/22 01:26:43;;;;;;;25.13;17.23;;;;;;;7.23;52.91;101937.28;5065263;28;20505;-68
2022/03/22 01:29:11;;;;;;;24.70;17.90;;;;;;;7.20;53.26;101934.75;5082267;28;20451;-68
2022/03/22 01:31:38;;;;;;;26.93;18.87;;;;;;;7.13;53.80;101934.22;5089597;28;20716;-69
2022/03/22 01:34:04;;;;;;;25.20;18.20;;;;;;;7.03;54.59;101933.81;5091621;28;20532;-68
2022/03/22 01:36:31;;;;;;;26.47;19.03;;;;;;;6.94;55.28;101939.59;5085468;28;20480;-68
2022/03/22 01:38:58;;;;;;;31.70;17.67;;;;;;;6.85;55.05;101940.03;5098229;28;20439;-67
2022/03/22 01:41:26;;;;;;;23.80;19.23;;;;;;;6.78;55.63;101928.84;5100095;28;20497;-67
2022/03/22 01:43:53;;;;;;;24.03;17.40;;;;;;;6.70;55.51;101929.22;5076936;28;20436;-68
2022/03/22 01:46:23;;;;;;;24.43;18.63;;;;;;;6.76;55.71;101920.09;5079209;28;20553;-68
2022/03/22 01:48:50;;;;;;;27.67;17.60;;;;;;;6.76;55.59;101923.59;5080639;28;20460;-67
2022/03/22 01:51:18;;;;;;;25.40;18.87;;;;;;;6.71;56.03;101919.44;5080909;28;20484;-68
2022/03/22 01:53:46;;;;;;;26.53;19.50;;;;;;;6.69;56.00;101924.84;5093134;28;20927;-68
2022/03/22 01:56:13;;;;;;;29.97;19.10;;;;;;;6.62;56.11;101919.91;5099409;28;20482;-68
2022/03/22 01:58:42;;;;;;;25.07;19.17;;;;;;;6.61;56.17;101934.97;5099431;28;20458;-68
2022/03/22 02:06:46;;;;;;;22.03;18.30;;;;;;;6.49;56.89;101925.81;5063473;28;20478;-68
2022/03/22 02:09:14;;;;;;;26.30;19.07;;;;;;;6.46;56.88;101925.06;5080705;28;20483;-67
2022/03/22 02:11:40;;;;;;;28.30;18.60;;;;;;;6.41;57.11;101917.34;5097765;28;20546;-67
2022/03/22 02:14:09;;;;;;;25.87;17.07;;;;;;;6.50;56.19;101924.00;5083006;28;20476;-67
2022/03/22 02:16:36;;;;;;;29.07;18.10;;;;;;;6.50;55.73;101910.72;5080315;28;20476;-67
2022/03/22 02:19:03;;;;;;;24.37;18.17;;;;;;;6.63;55.29;101906.53;5093339;28;20428;-67
2022/03/22 02:21:32;;;;;;;23.57;18.00;;;;;;;6.63;55.43;101910.97;5094255;28;20475;-67
2022/03/22 02:24:00;;;;;;;24.60;18.00;;;;;;;6.56;55.94;101905.97;5084217;28;20467;-67
2022/03/22 02:26:27;;;;;;;24.87;18.10;;;;;;;6.47;56.41;101911.72;5090161;28;20509;-67
2022/03/22 02:28:54;;;;;;;25.97;18.90;;;;;;;6.40;56.69;101910.28;5092784;28;20527;-67
2022/03/22 02:31:21;;;;;;;25.50;17.73;;;;;;;6.48;55.52;101916.09;5082622;28;20498;-67
2022/03/22 02:33:48;;;;;;;26.10;18.40;;;;;;;6.49;55.64;101909.88;5083242;28;20548;-67
2022/03/22 02:36:15;;;;;;;29.30;17.93;;;;;;;6.46;55.87;101911.78;5095532;28;20475;-67
2022/03/22 02:38:42;;;;;;;25.30;18.70;;;;;;;6.40;56.78;101913.78;5103315;28;20473;-66
2022/03/22 02:41:15;;;;;;;27.90;19.07;;;;;;;6.29;58.15;101918.75;5102088;28;20981;-66
2022/03/22 02:43:42;;;;;;;23.90;17.37;;;;;;;6.19;59.37;101914.81;5085671;28;20964;-66
2022/03/22 02:46:08;;;;;;;25.73;18.30;;;;;;;6.13;59.79;101913.31;5082926;28;20985;-66
2022/03/22 02:48:35;;;;;;;28.57;20.10;;;;;;;6.12;59.45;101911.56;5091511;28;20440;-66
2022/03/22 02:51:02;;;;;;;32.17;19.77;;;;;;;6.08;59.43;101906.50;5082622;28;20475;-67
2022/03/22 02:53:28;;;;;;;26.07;19.37;;;;;;;6.00;59.36;101914.78;5093486;28;20528;-66
2022/03/22 02:55:55;;;;;;;26.90;18.43;;;;;;;5.94;59.35;101907.09;5086869;28;20549;-67
2022/03/22 02:58:23;;;;;;;28.73;18.93;;;;;;;5.93;59.06;101919.47;5083316;28;20440;-67
2022/03/22 03:00:50;;;;;;;25.90;18.00;;;;;;;5.95;59.45;101908.81;5083413;28;20514;-67
2022/03/22 03:03:22;;;;;;;28.30;18.87;;;;;;;5.92;59.60;101912.47;5087812;28;20475;-67
2022/03/22 03:05:49;;;;;;;29.63;19.33;;;;;;;5.85;60.24;101919.00;5084773;28;20472;-67
2022/03/22 03:08:16;;;;;;;28.17;19.27;;;;;;;5.75;60.31;101920.34;5084090;28;20507;-67
2022/03/22 03:10:42;;;;;;;26.00;19.30;;;;;;;5.71;60.50;101924.91;5079569;28;20479;-67
2022/03/22 03:13:09;;;;;;;24.93;19.20;;;;;;;5.65;61.00;101926.03;5103856;28;20926;-67
2022/03/22 03:15:37;;;;;;;28.70;21.27;;;;;;;5.62;61.42;101931.50;5087414;28;20533;-67
2022/03/22 03:18:05;;;;;;;26.83;18.87;;;;;;;5.49;62.13;101927.63;5085454;28;20432;-67
2022/03/22 03:20:31;;;;;;;26.33;19.20;;;;;;;5.49;62.31;101927.63;5095986;28;20541;-67
2022/03/22 03:22:58;;;;;;;23.87;18.50;;;;;;;5.52;62.55;101922.22;5091813;28;20489;-67
2022/03/22 03:25:25;;;;;;;26.90;19.33;;;;;;;5.54;62.43;101920.34;5089419;28;20475;-67
2022/03/22 03:27:52;;;;;;;27.20;19.90;;;;;;;5.54;62.27;101930.94;5083770;28;20435;-67
2022/03/22 03:30:19;;;;;;;32.63;19.60;;;;;;;5.56;61.81;101930.91;5070820;28;20459;-68
2022/03/22 03:32:47;;;;;;;30.03;21.40;;;;;;;5.54;61.50;101928.31;5086017;28;20528;-67
2022/03/22 03:35:13;;;;;;;27.83;19.77;;;;;;;5.50;61.37;101929.34;5092328;28;20494;-66
2022/03/22 03:37:42;;;;;;;25.30;18.80;;;;;;;5.46;61.72;101927.75;5102889;28;20423;-67
2022/03/22 03:40:09;;;;;;;29.43;19.07;;;;;;;5.43;62.36;101931.44;5098377;28;20957;-67
2022/03/22 03:42:41;;;;;;;27.27;18.67;;;;;;;5.35;62.60;101930.03;5082691;28;20494;-66
2022/03/22 03:47:56;;;;;;;29.77;20.17;;;;;;;5.35;62.24;101927.38;5082971;28;20439;-66
2022/03/22 03:50:23;;;;;;;30.50;20.13;;;;;;;5.34;62.30;101928.28;5081216;28;20482;-66
2022/03/22 03:52:50;;;;;;;27.40;19.50;;;;;;;5.32;62.65;101930.16;5086657;28;20475;-66
2022/03/22 03:55:16;;;;;;;27.63;18.77;;;;;;;5.32;62.85;101930.16;5077572;28;20484;-66
2022/03/22 03:57:44;;;;;;;27.53;19.77;;;;;;;5.20;63.53;101932.38;5097063;28;20440;-66
2022/03/22 04:00:12;;;;;;;32.93;18.90;;;;;;;5.02;65.35;101934.03;5097311;28;20455;-66
2022/03/22 04:02:40;;;;;;;23.47;18.00;;;;;;;5.01;65.79;101932.28;5086734;28;20463;-65
2022/03/22 04:05:10;;;;;;;27.20;19.73;;;;;;;5.00;65.66;101933.22;5100481;28;20475;-66
2022/03/22 04:07:37;;;;;;;27.50;19.53;;;;;;;5.00;65.64;101932.34;5097688;28;20467;-66
2022/03/22 04:10:04;;;;;;;28.87;19.40;;;;;;;4.99;65.42;101933.28;5081445;28;20547;-65
2022/03/22 04:12:31;;;;;;;24.77;19.27;;;;;;;4.94;65.45;101933.47;5081162;28;20480;-65
2022/03/22 04:14:57;;;;;;;24.90;18.87;;;;;;;4.83;65.78;101933.91;5082529;28;20867;-65
2022/03/22 04:17:24;;;;;;;28.00;19.57;;;;;;;4.84;65.81;101935.66;5080856;28;20504;-65
2022/03/22 04:19:51;;;;;;;23.53;19.00;;;;;;;5.00;65.37;101935.00;5098423;28;20469;-65
2022/03/22 04:22:19;;;;;;;25.03;17.93;;;;;;;4.92;65.09;101939.78;5098140;28;20478;-65
2022/03/22 04:24:46;;;;;;;29.00;18.60;;;;;;;4.99;64.04;101939.44;5093109;28;20946;-66
2022/03/22 04:32:43;;;;;;;30.20;19.70;;;;;;;4.87;64.28;101950.53;5099926;28;20533;-66
2022/03/22 04:35:11;;;;;;;28.70;20.03;;;;;;;4.78;64.62;101941.19;5090434;28;20487;-66
2022/03/22 04:37:39;;;;;;;28.17;20.00;;;;;;;4.79;64.50;101950.88;5080792;28;20436;-67
2022/03/22 04:40:07;;;;;;;25.83;18.00;;;;;;;4.75;64.09;101949.25;5089005;28;20502;-67
2022/03/22 04:42:34;;;;;;;27.40;19.37;;;;;;;4.77;63.90;101949.19;5100023;28;20455;-66
2022/03/22 04:45:00;;;;;;;26.00;19.93;;;;;;;4.84;63.71;101951.56;5100716;28;20474;-66
2022/03/22 04:47:27;;;;;;;28.77;20.10;;;;;;;4.83;64.18;101948.97;5095005;28;20483;-66
2022/03/22 04:49:54;;;;;;;29.63;19.83;;;;;;;4.75;64.28;101940.44;5089237;28;20514;-66
2022/03/22 04:57:52;;;;;;;27.00;20.03;;;;;;;4.59;66.17;101953.44;5097667;28;20478;-67
2022/03/22 05:00:18;;;;;;;26.63;18.50;;;;;;;4.49;66.02;101943.19;5099132;28;20727;-66
2022/03/22 05:02:45;;;;;;;28.67;19.40;;;;;;;4.49;65.59;101950.28;5093060;28;20471;-66
2022/03/22 05:05:12;;;;;;;26.90;20.47;;;;;;;4.46;65.78;101953.03;5083725;28;20436;-66
2022/03/22 05:07:39;;;;;;;26.97;20.90;;;;;;;4.42;65.91;101952.28;5081559;28;20440;-66
2022/03/22 05:10:08;;;;;;;28.93;20.60;;;;;;;4.48;65.66;101964.47;5099002;28;20447;-68
2022/03/22 05:12:37;;;;;;;28.67;20.97;;;;;;;4.52;65.33;101971.34;5087469;28;20836;-66
2022/03/22 05:15:05;;;;;;;30.83;20.83;;;;;;;4.50;65.64;101968.75;5093233;28;20527;-66
2022/03/22 05:17:31;;;;;;;35.00;21.00;;;;;;;4.52;65.74;101966.06;5079666;28;20467;-66
2022/03/22 05:19:58;;;;;;;28.53;21.03;;;;;;;4.52;65.90;101974.84;5081924;28;20851;-66
2022/03/22 05:22:25;;;;;;;29.40;20.60;;;;;;;4.47;66.25;101968.88;5083512;28;20542;-66
2022/03/22 05:24:52;;;;;;;28.13;18.07;;;;;;;4.44;66.81;101982.22;5094022;28;20833;-68
2022/03/22 05:27:20;;;;;;;27.53;18.70;;;;;;;4.42;67.52;101983.22;5085973;28;20696;-65
2022/03/22 05:29:46;;;;;;;25.67;18.30;;;;;;;4.43;67.76;101977.88;5082297;28;20447;-66
2022/03/22 05:32:13;;;;;;;28.17;19.83;;;;;;;4.41;67.64;101974.41;5080629;28;20476;-65
2022/03/22 05:34:39;;;;;;;30.33;20.80;;;;;;;4.26;67.82;101980.28;5083451;28;20498;-66
2022/03/22 05:37:06;;;;;;;29.20;19.97;;;;;;;4.50;67.18;101973.19;5100467;28;20475;-65
2022/03/22 05:39:33;;;;;;;36.70;20.50;;;;;;;4.69;66.00;101983.94;5099759;28;20451;-67
2022/03/22 05:42:00;;;;;;;30.37;20.30;;;;;;;4.76;65.00;101979.28;5097535;28;21265;-69
2022/03/22 05:44:28;;;;;;;28.20;19.80;;;;;;;4.74;64.91;101981.97;5080590;28;20429;-69
2022/03/22 05:46:56;;;;;;;29.93;20.40;;;;;;;4.82;64.62;101981.66;5080249;28;21005;-67
2022/03/22 05:49:22;;;;;;;28.60;19.90;;;;;;;5.00;64.12;101982.72;5080631;28;20475;-67
2022/03/22 05:51:49;;;;;;;27.67;18.80;;;;;;;5.19;63.75;101988.13;5080721;28;20502;-67
2022/03/22 05:54:16;;;;;;;29.50;19.97;;;;;;;5.36;63.46;101976.81;5083742;28;20499;-68
2022/03/22 05:56:42;;;;;;;32.40;20.50;;;;;;;5.56;62.66;101987.47;5103796;28;20474;-67
2022/03/22 05:59:09;;;;;;;28.93;21.20;;;;;;;5.76;61.95;101988.38;5103042;28;20435;-67
2022/03/22 06:01:37;;;;;;;25.70;18.80;;;;;;;5.91;61.63;101989.53;5103832;28;20472;-68
2022/03/22 06:04:04;;;;;;;27.37;20.37;;;;;;;5.92;61.66;101989.44;5090217;28;20506;-68
2022/03/22 06:06:31;;;;;;;31.80;20.40;;;;;;;6.38;60.86;101986.53;5085460;28;20472;-66
2022/03/22 06:08:57;;;;;;;27.70;20.00;;;;;;;6.76;60.14;101990.06;5082519;28;20657;-67
2022/03/22 06:11:24;;;;;;;30.53;19.47;;;;;;;6.83;59.21;101987.97;5084014;28;20479;-68
2022/03/22 06:13:51;;;;;;;25.73;18.70;;;;;;;6.60;60.06;101984.59;5083922;28;20462;-67
2022/03/22 06:16:18;;;;;;;25.13;18.63;;;;;;;6.70;59.95;101993.03;5101904;28;20479;-68
2022/03/22 06:18:46;;;;;;;24.30;19.50;;;;;;;7.01;59.28;101994.19;5103586;28;20435;-72
2022/03/22 06:21:12;;;;;;;25.40;18.60;;;;;;;7.40;58.57;102003.81;5101701;28;20475;-72
2022/03/22 06:23:39;;;;;;;23.47;18.37;;;;;;;8.00;57.19;102003.41;5103337;28;20473;-72
2022/03/22 06:26:06;;;;;;;26.87;20.20;;;;;;;8.29;55.52;102004.50;5102892;28;20463;-71
2022/03/22 06:28:32;;;;;;;26.50;19.57;;;;;;;8.72;54.30;102001.31;5095333;28;20439;-72
2022/03/22 06:30:59;;;;;;;21.30;18.40;;;;;;;8.99;52.41;102001.59;5098340;28;20510;-73
2022/03/22 06:33:26;;;;;;;23.17;18.80;;;;;;;9.35;51.18;102003.06;5094045;28;20994;-73
2022/03/22 06:35:54;;;;;;;27.40;19.47;;;;;;;9.46;50.22;102001.56;5082584;28;20514;-72
2022/03/22 06:38:21;;;;;;;24.73;19.53;;;;;;;10.12;47.54;102006.50;5083796;28;20444;-73
2022/03/22 06:40:49;;;;;;;27.17;20.03;;;;;;;11.23;45.67;101999.47;5082762;28;21021;-73
2022/03/22 06:43:16;;;;;;;23.40;18.10;;;;;;;12.17;44.60;102010.97;5083652;28;20443;-73
2022/03/22 06:45:44;;;;;;;23.70;19.17;;;;;;;12.11;44.53;102017.63;5082834;28;20468;-73
2022/03/22 06:48:11;;;;;;;32.90;20.07;;;;;;;12.09;43.99;102018.72;5083125;28;20903;-72
2022/03/22 06:50:39;;;;;;;22.43;19.30;;;;;;;11.91;43.59;102015.47;5082859;28;20476;-72
2022/03/22 06:53:08;;;;;;;27.20;20.60;;;;;;;11.94;43.73;102018.81;5083470;28;20432;-73
2022/03/22 06:55:35;;;;;;;23.77;21.10;;;;;;;12.24;42.33;102026.53;5081961;28;20471;-73
2022/03/22 06:58:03;;;;;;;24.20;21.10;;;;;;;12.19;41.89;102023.34;5083462;28;20530;-73
2022/03/22 07:00:31;;;;;;;24.03;19.90;;;;;;;13.84;39.02;102015.78;5082647;28;20467;-73
2022/03/22 07:03:00;;;;;;;39.43;24.00;;;;;;;14.45;38.20;102024.41;5083730;28;20436;-73
2022/03/22 07:05:27;;;;;;;107.93;31.90;;;;;;;14.24;39.00;102020.75;5081895;28;20468;-72
2022/03/22 07:07:54;;;;;;;118.23;33.40;;;;;;;15.68;35.69;102024.25;5083368;28;20456;-73
2022/03/22 07:10:22;;;;;;;35.43;21.40;;;;;;;14.53;37.04;102029.19;5070251;28;20518;-73
2022/03/22 07:12:51;;;;;;;24.60;20.03;;;;;;;12.92;39.93;102028.91;5101185;28;20482;-73
2022/03/22 07:15:18;;;;;;;23.07;20.67;;;;;;;14.51;36.46;102036.50;5099788;28;20940;-73
2022/03/22 07:17:45;;;;;;;22.47;19.97;;;;;;;14.62;35.95;102033.88;5100969;28;20529;-73
2022/03/22 07:20:13;;;;;;;23.07;20.53;;;;;;;15.89;33.02;102037.78;5100295;28;20443;-73
2022/03/22 07:22:41;;;;;;;23.70;20.30;;;;;;;15.19;34.54;102039.13;5100801;28;20451;-73
2022/03/22 07:25:08;;;;;;;24.40;21.70;;;;;;;15.61;34.43;102037.41;5099392;28;20458;-73
2022/03/22 07:27:39;;;;;;;26.13;19.83;;;;;;;15.63;33.27;102040.81;5099985;28;20826;-73
2022/03/22 07:30:06;;;;;;;24.10;20.70;;;;;;;16.43;32.39;102046.59;5102099;28;20439;-73
2022/03/22 07:32:33;;;;;;;22.70;20.30;;;;;;;16.00;33.21;102048.50;5101404;28;20489;-72
2022/03/22 07:35:00;;;;;;;22.93;20.50;;;;;;;16.36;31.94;102046.28;5101420;28;20509;-73
2022/03/22 07:37:29;;;;;;;24.67;19.10;;;;;;;16.64;31.33;102048.41;5101179;28;20675;-72
2022/03/22 07:39:57;;;;;;;23.50;20.63;;;;;;;17.28;30.52;102036.34;5101454;28;20489;-73
2022/03/22 07:42:27;;;;;;;22.17;19.87;;;;;;;19.24;28.24;102042.94;5100859;28;20462;-73
2022/03/22 07:44:56;;;;;;;24.13;21.20;;;;;;;17.76;29.62;102040.03;5101260;28;20443;-73
2022/03/22 07:47:23;;;;;;;23.77;20.30;;;;;;;16.44;31.93;102034.81;5101546;28;20991;-73
2022/03/22 07:55:18;;;;;;;23.40;19.50;;;;;;;19.68;26.82;102036.72;5099472;28;20570;-73
2022/03/22 07:57:45;;;;;;;25.70;22.03;;;;;;;18.78;27.78;102036.63;5101442;28;20777;-73
2022/03/22 08:00:14;;;;;;;23.03;20.53;;;;;;;19.23;26.85;102035.78;5100521;28;20512;-73
2022/03/22 08:02:51;;;;;;;22.40;20.10;;;;;;;19.24;26.92;102032.09;5101020;28;20435;-72
2022/03/22 08:05:17;;;;;;;23.43;19.77;;;;;;;20.07;25.42;102034.50;5100305;28;20866;-73
2022/03/22 08:07:44;;;;;;;21.97;19.70;;;;;;;17.20;30.20;102033.50;5101369;28;20526;-72
2022/03/22 08:10:11;;;;;;;24.57;21.97;;;;;;;17.54;30.77;102033.09;5099448;28;20439;-72
2022/03/22 08:12:38;;;;;;;23.23;20.77;;;;;;;16.71;31.15;102038.75;5100804;28;20530;-73
2022/03/22 08:15:06;;;;;;;23.73;20.47;;;;;;;16.87;31.35;102031.03;5100062;28;20491;-73
2022/03/22 08:17:34;;;;;;;24.60;21.20;;;;;;;17.28;30.49;102034.50;5099602;28;20451;-73
2022/03/22 08:20:00;;;;;;;23.10;20.80;;;;;;;17.37;29.36;102029.25;5100359;28;20435;-73
2022/03/22 08:22:27;;;;;;;27.33;20.33;;;;;;;18.40;28.58;102033.97;5100264;28;20467;-73
2022/03/22 08:24:54;;;;;;;25.20;20.10;;;;;;;18.01;28.97;102036.75;5099628;28;20489;-74
2022/03/22 08:27:21;;;;;;;23.23;20.90;;;;;;;18.49;28.35;102040.34;5100237;28;20504;-73
2022/03/22 08:29:47;;;;;;;22.27;19.87;;;;;;;19.90;26.97;102035.41;5100259;28;21595;-73
2022/03/22 08:32:14;;;;;;;26.33;22.00;;;;;;;18.96;27.42;102028.59;5099546;28;20471;-73
2022/03/22 08:34:42;;;;;;;24.13;18.63;;;;;;;20.34;26.19;102034.50;5100379;28;20439;-73
2022/03/22 08:37:12;;;;;;;24.20;19.73;;;;;;;18.96;27.94;102032.13;5099858;28;20492;-73
2022/03/22 08:39:39;;;;;;;25.10;20.80;;;;;;;19.49;27.26;102032.31;5099927;28;20447;-73
2022/03/22 08:42:06;;;;;;;24.83;20.23;;;;;;;21.23;24.83;102035.84;5099649;28;20531;-73
2022/03/22 08:44:33;;;;;;;25.83;20.97;;;;;;;20.29;25.66;102032.25;5099628;28;20444;-73
2022/03/22 08:47:01;;;;;;;22.33;20.13;;;;;;;19.97;26.64;102033.75;5099293;28;20537;-73
2022/03/22 08:49:28;;;;;;;22.60;20.20;;;;;;;21.45;24.70;102027.03;5099545;28;20427;-72
2022/03/22 08:51:56;;;;;;;26.17;19.87;;;;;;;20.30;26.13;102033.97;5099906;28;20554;-73
2022/03/22 08:54:22;;;;;;;23.77;20.43;;;;;;;19.59;27.54;102024.94;5100128;28;20486;-73
2022/03/22 08:56:49;;;;;;;27.30;21.87;;;;;;;22.12;24.15;102025.19;5099701;28;20921;-73
2022/03/22 08:59:16;;;;;;;25.03;21.47;;;;;;;21.62;24.90;102027.94;5100234;28;20465;-73
2022/03/22 09:01:44;;;;;;;22.13;19.83;;;;;;;20.73;26.19;102025.88;5099496;28;20482;-73
2022/03/22 09:06:57;;;;;;;21.87;19.57;;;;;;;21.59;24.30;102022.84;5099516;28;20542;-73
2022/03/22 09:09:24;;;;;;;21.50;19.33;;;;;;;21.89;24.83;102022.31;5099150;28;20467;-73
2022/03/22 09:11:50;;;;;;;23.10;20.80;;;;;;;22.08;24.14;102018.34;5079033;28;20475;-73
2022/03/22 09:14:17;;;;;;;23.50;21.20;;;;;;;21.55;24.38;102018.75;5098580;28;20442;-73
2022/03/22 09:16:44;;;;;;;20.53;18.37;;;;;;;22.70;23.04;102020.41;5099233;28;20503;-73
2022/03/22 09:19:11;;;;;;;22.63;20.43;;;;;;;22.58;23.32;102019.94;5099121;28;20715;-73
2022/03/22 09:21:37;;;;;;;22.47;19.93;;;;;;;22.86;22.90;102014.88;5098722;28;20994;-73
2022/03/22 09:24:07;;;;;;;22.00;19.57;;;;;;;22.84;22.49;102013.34;5099145;28;20929;-73
2022/03/22 09:26:34;;;;;;;23.00;20.30;;;;;;;20.49;25.56;102009.28;5099172;28;20505;-73
2022/03/22 09:29:01;;;;;;;23.30;19.37;;;;;;;22.13;23.11;102014.13;5102253;28;20488;-73
2022/03/22 09:31:28;;;;;;;21.33;19.13;;;;;;;21.50;24.55;102001.25;5103149;28;20478;-73
2022/03/22 09:33:57;;;;;;;22.80;20.50;;;;;;;21.90;24.02;102005.78;5103702;28;20439;-75
2022/03/22 09:36:23;;;;;;;24.13;19.77;;;;;;;21.86;23.95;102006.34;5103503;28;20570;-72
2022/03/22 09:38:50;;;;;;;24.70;21.53;;;;;;;21.87;24.00;102003.41;5104202;28;20439;-73
2022/03/22 09:41:18;;;;;;;22.33;19.30;;;;;;;23.53;22.50;102007.97;5103098;28;20494;-73
2022/03/22 09:43:48;;;;;;;24.97;20.37;;;;;;;22.88;23.98;102010.09;5103938;28;20945;-73
2022/03/22 09:46:17;;;;;;;22.00;19.70;;;;;;;24.78;21.00;102012.78;5103088;28;20633;-73
2022/03/22 09:48:44;;;;;;;23.77;20.60;;;;;;;23.43;22.23;102002.75;5103241;28;20760;-73
2022/03/22 09:53:55;;;;;;;23.13;20.53;;;;;;;23.71;22.52;102002.16;5103079;28;20410;-73
2022/03/22 09:56:26;;;;;;;25.40;21.40;;;;;;;23.71;22.03;102001.31;5102199;28;20744;-73
2022/03/22 09:58:52;;;;;;;22.17;19.97;;;;;;;23.31;22.29;102004.22;5104097;28;20942;-73
2022/03/22 10:01:21;;;;;;;22.87;20.43;;;;;;;23.96;20.77;102004.72;5102401;28;20561;-73
2022/03/22 10:03:59;;;;;;;24.80;19.23;;;;;;;23.37;21.77;101994.47;5103332;28;20894;-73
2022/03/22 10:06:25;;;;;;;21.70;19.50;;;;;;;24.27;20.87;102009.13;5120903;28;20477;-72
2022/03/22 10:08:52;;;;;;;23.70;20.20;;;;;;;22.90;22.92;101990.81;5109286;28;20902;-73
2022/03/22 10:11:20;;;;;;;23.13;18.53;;;;;;;23.95;21.32;101995.66;5101607;28;20474;-73
2022/03/22 10:13:54;;;;;;;21.47;19.23;;;;;;;23.95;20.95;101997.53;5103740;28;20473;-73
2022/03/22 10:16:22;;;;;;;21.30;19.00;;;;;;;22.83;23.03;101987.97;5102636;28;20540;-73
2022/03/22 10:18:49;;;;;;;20.57;18.50;;;;;;;24.11;21.49;101991.03;5102594;28;20447;-73
2022/03/22 10:21:15;;;;;;;21.53;19.23;;;;;;;24.58;20.16;101993.41;5102004;28;20602;-73
2022/03/22 10:23:49;;;;;;;23.43;20.03;;;;;;;23.53;21.79;101975.19;5103338;28;20471;-73
2022/03/22 10:26:16;;;;;;;21.23;19.00;;;;;;;23.31;22.09;101979.63;5101177;28;20471;-73
2022/03/22 10:28:50;;;;;;;23.57;19.00;;;;;;;23.00;22.08;101980.53;5103131;28;20882;-73
2022/03/22 10:31:18;;;;;;;26.10;18.80;;;;;;;22.97;22.60;101978.16;5102242;28;20505;-73
2022/03/22 10:33:52;;;;;;;22.10;19.90;;;;;;;24.33;21.06;101976.44;5103273;28;20430;-73
2022/03/22 10:36:21;;;;;;;23.50;19.43;;;;;;;24.19;20.48;101982.75;5101536;28;20489;-73
2022/03/22 10:38:55;;;;;;;22.20;19.97;;;;;;;23.95;20.58;101976.53;5102998;28;20434;-73
2022/03/22 10:41:29;;;;;;;20.10;17.97;;;;;;;24.47;20.14;101974.72;5097852;28;20488;-73
2022/03/22 10:44:03;;;;;;;25.07;19.87;;;;;;;24.09;20.77;101969.38;5103266;28;20442;-74
2022/03/22 10:46:32;;;;;;;20.53;18.60;;;;;;;24.47;19.65;101971.97;5101807;28;20474;-74
2022/03/22 10:49:07;;;;;;;20.50;18.40;;;;;;;25.08;19.24;101963.44;5102499;28;20423;-74
2022/03/22 10:51:43;;;;;;;20.57;18.33;;;;;;;25.35;18.58;101964.59;5081479;28;20467;-73
2022/03/22 10:54:12;;;;;;;21.03;18.83;;;;;;;24.42;19.38;101964.34;5081744;28;20486;-73
2022/03/22 10:56:45;;;;;;;18.93;15.90;;;;;;;24.53;18.35;101971.22;5081152;28;20487;-73
2022/03/22 10:59:12;;;;;;;18.27;16.30;;;;;;;25.73;18.08;101961.53;5082487;28;20436;-73
2022/03/22 11:01:41;;;;;;;18.60;16.60;;;;;;;25.96;16.81;101967.81;5081766;28;20472;-73
2022/03/22 11:04:08;;;;;;;18.10;16.27;;;;;;;24.32;18.92;101968.41;5082144;28;20428;-73
2022/03/22 11:06:36;;;;;;;18.80;15.90;;;;;;;24.53;18.74;101965.75;5100824;28;20482;-73
2022/03/22 11:09:03;;;;;;;19.97;16.73;;;;;;;24.31;17.79;101959.38;5102224;28;20440;-73
2022/03/22 11:11:31;;;;;;;21.93;15.80;;;;;;;24.62;17.06;101964.63;5101110;28;20467;-73
2022/03/22 11:13:58;;;;;;;21.30;15.77;;;;;;;25.00;16.93;101966.31;5102114;28;20427;-73
2022/03/22 11:16:26;;;;;;;16.17;14.50;;;;;;;25.05;17.33;101961.13;5099612;28;20479;-72
2022/03/22 11:18:55;;;;;;;18.70;15.57;;;;;;;24.45;18.15;101949.47;5101622;28;20439;-73
2022/03/22 11:21:22;;;;;;;18.60;14.53;;;;;;;25.22;17.86;101949.91;5101416;28;20524;-73
2022/03/22 11:23:49;;;;;;;17.93;15.90;;;;;;;24.04;18.56;101953.56;5101466;28;20423;-73
2022/03/22 11:26:18;;;;;;;18.77;16.40;;;;;;;24.84;18.37;101934.56;5100408;28;20475;-73
2022/03/22 11:28:48;;;;;;;19.53;15.97;;;;;;;24.28;18.38;101946.09;5101556;28;20439;-73
2022/03/22 11:31:18;;;;;;;18.90;15.53;;;;;;;24.99;17.50;101940.00;5100771;28;20471;-73
2022/03/22 11:36:40;;;;;;;19.80;16.67;;;;;;;24.19;19.00;101941.75;5100996;28;20538;-73
2022/03/22 11:39:07;;;;;;;18.37;16.33;;;;;;;24.69;17.83;101934.63;5101379;28;20435;-73
2022/03/22 11:44:24;;;;;;;20.63;16.67;;;;;;;24.71;18.09;101935.28;5101406;28;20415;-72
2022/03/22 11:47:02;;;;;;;19.03;15.60;;;;;;;24.92;17.89;101928.16;5100571;28;20481;-74
2022/03/22 11:49:29;;;;;;;17.90;16.07;;;;;;;23.74;18.99;101935.41;5100348;28;20543;-73
2022/03/22 11:51:58;;;;;;;19.63;14.67;;;;;;;24.11;18.66;101933.66;5100415;28;20508;-73
2022/03/22 11:54:27;;;;;;;19.50;14.57;;;;;;;24.63;17.59;101929.94;5100435;28;20512;-72